In Rescue
 
Open Full Screen Window  High Contrast Mode
Wind Gusting 00 knots
05
May 27, 2024 2:24 PM CDT
Weather Information
Wind Direction
  020 °
Wind Speed
  05 kt (6 mph)
Wind Gust
  00 kt (0 mph)
Altimeter
29.79 in
Visibility
10 SM
Temperature
18° C
64° F
Dewpoint
11° C
52° F
Humidity
64%
Sky Condition
Broken @ 5,500 ft
Scattered @ 4,500 ft
Scattered @ 3,900 ft
VFR

METAR KPEX 271924Z AUTO 02005KT 10SM SCT039 SCT045 BKN055 18/11 A2979 RMK AO2 LTG DSNT E SE AND W

FAA Disclaimer: The data displayed is for advisory purposes only and is not to be used for flight planning or operations.